Магнитогорск

Карта отелей и гостиниц, располагающихся рядом с аэропортом Магнитогорск :

Магнитогорск Башкортостан 53° 23' 35.2788" N, 58° 45' 20.2788" E
Код аэродрома ИКАО
USCM
Код аэродрома RU
УСЦМ
Координаты
N53.39313° E058.75563°
Превышение над уровнем моря
436
Основная полоса
01/19
Курс магнитный
003,9/183,9
Длина основной ВПП
3250
Ширина основной ВПП
45
Покрытие основной ВПП
Твёрдое (цементобетон)
Освещение ВПП
Постоянное
Тип: 
Аэродром
Класс аэродрома: 
Международный
Принадлежность: 
ГА
Статус: 
Действующий
Сайт: 
http://www.airmgn.ru
E-mail аэродрома: 
Airmagnitka@bk.ru, Airport@mgn.chel.su, aviamag@mail.ru
Страна: 
Россия
Регион: 
Башкортостан
Дополнительная информация: 
Горный. Оператор: ФГУП "Магнитогорское Авиапредприятие". Нкр.=(600)м.
Погода: 

Авиационная погода в Магнитогорске

Погода METAR: 
USCM 261730Z 15002MPS 8000 NSC M26/M29 Q1019 R18/090060 TEMPO 2000 BR RMK QFE727
Время наблюдения
2021-02-26T17:30:00Z
Температура C
-26.0
Точка росы
-29.0
Направление ветра
150
Скорость ветра (узлы)
4
Метео видимость
4.97
Явления погоды
Условия полета
MVFR
Аэропорт подробнее: 

Найти трансфер

С помощью этой формы Вы можете найти трансфер из аэропорта Магнитогорск в город, аэропорт или вокзал:

Карта места

Javascript is required to view this map.

Погода в аэропортах:

Авиационная погода в Ульяновске

Регион: 
Погода METAR: 
UWLW 261800Z 16008MPS 1300 1100S R20/P2000D SN BLSN OVC006 M11/M13 Q1003 R20/494030 NOSIG RMK QFE747
Время наблюдения
2021-02-26T18:00:00Z
Температура C
-11.0
Точка росы
-13.0
Направление ветра
160
Скорость ветра (узлы)
16
Метео видимость
0.81
Явления погоды
BLSN SN
Условия полета
LIFR
Аэропорт подробнее: 

Авиационная погода в Вадсё

Регион: 
Погода METAR: 
ENVD 261750Z 34025KT 9999 VCSH FEW040 01/M04 Q1002
Время наблюдения
2021-02-26T17:50:00Z
Температура C
1.0
Точка росы
-4.0
Направление ветра
340
Скорость ветра (узлы)
25
Метео видимость
6.21
Явления погоды
VCSH
Условия полета
VFR

Авиационная погода в Атырау

Регион: 
Погода METAR: 
UATG 261730Z 22003MPS 5000 BR OVC015 M05/M05 Q1018 R14/82//53 NOSIG RMK QFE766/1021
Время наблюдения
2021-02-26T17:30:00Z
Температура C
-5.0
Точка росы
-5.0
Направление ветра
220
Скорость ветра (узлы)
6
Метео видимость
3.11
Явления погоды
BR
Условия полета
MVFR

Авиационная погода в Актобе

Регион: 
Погода METAR: 
UATT 261730Z 13009MPS 8000 -SN DRSN SCT026 M16/M19 Q1019 R12/820255 NOSIG RMK QFE744/0993
Время наблюдения
2021-02-26T17:30:00Z
Температура C
-16.0
Точка росы
-19.0
Направление ветра
130
Скорость ветра (узлы)
17
Метео видимость
4.97
Явления погоды
-SN DRSN
Условия полета
MVFR
Аэропорт подробнее: